Main page
METAR-TAF:

METAR-TAF

Airports :

Košice International Airport

Košice, Slovakia

latitude: 48-39-47N, longitude: 021-14-28E, elevation: 232 m

Current weather observation

The report was made 36 minutes ago, at 14:00 UTC
Wind 10 kt from the Northeast
Temperature 24°C
Humidity 44%
Pressure 1010 hPa
Visibility 10 km or more
no clouds below 1500 m and no cumulonimbus

METAR: LZKZ 291400Z 04010KT CAVOK 24/11 Q1010 NOSIG

Time: 16:36 (14:36 UTC)

Forecast

The report was made 3 hours and 21 minutes ago, at 11:15 UTC
Forecast valid from 29 at 12 UTC to 30 at 12 UTC
Wind 9 kt from the North/Northeast
Visibility 10 km or more
Scattered clouds at a height of 4500 ft
Probability 40% :
Temporary
from 29 at 12 UTC to 29 at 16 UTC
Wind 15 kt from the East/Northeast
Scattered clouds at a height of 3000 ft, Cumulonimbus.
rain showers
Temporary
from 29 at 22 UTC to 30 at 02 UTC
Wind 2 kt from variable directions

TAF: LZKZ 291115Z 2912/3012 02009KT 9999 SCT045 PROB40 TEMPO 2912/2916 07015KT SHRA SCT030CB TEMPO 2922/3002 VRB02KT

Weather observations and forecasts of more than 4000 airports (METAR and TAF reports).

The available stations are represented by yellow and red dots on the map.

Hover mouse over dot to see the name of the station.

Then click to see weather observations and forecasts.

To change the map : click on the green buttons with a black cross to zoom in, on the green button with a dash to zoom out, or on the green arrows for adjacent maps.


METAR-TAF: